Time;durP1;ratioP1;P1;durP2;ratioP2;P2;SDS_P1;SDS_P2;PMS_P1;PMS_P2;Temp;Humidity;BMP_temperature;BMP_pressure;BME280_temperature;BME280_humidity;BME280_pressure;Samples;Min_cycle;Max_cycle;Signal;HPM_P1;HPM_P2
2022/01/25 00:27:37;;;;;;;42.20;19.08;;;5.40;99.90;;;;;;6222254;23;20026;-91
2022/01/25 00:30:25;;;;;;;42.53;17.27;;;5.40;99.90;;;;;;6221887;23;20023;-90
2022/01/25 00:32:57;;;;;;;36.97;18.20;;;5.40;99.90;;;;;;6197627;23;20020;-91
2022/01/25 00:35:59;;;;;;;47.35;19.98;;;5.40;99.90;;;;;;6223124;23;20043;-91
2022/01/25 00:38:48;;;;;;;45.00;18.17;;;5.40;99.90;;;;;;6200126;23;20024;-91
2022/01/25 00:41:19;;;;;;;43.70;17.85;;;5.40;99.90;;;;;;6198675;23;20103;-91
2022/01/25 00:44:19;;;;;;;45.55;20.90;;;5.40;99.90;;;;;;6222963;23;20027;-91
2022/01/25 00:47:10;;;;;;;43.90;19.42;;;5.30;99.90;;;;;;6221667;23;20066;-92
2022/01/25 00:49:44;;;;;;;43.47;20.13;;;5.40;99.90;;;;;;6197124;23;20020;-91
2022/01/25 00:55:00;;;;;;;46.10;18.50;;;5.40;99.90;;;;;;6221597;23;20055;-91
2022/01/25 00:57:33;;;;;;;39.13;17.35;;;5.40;99.90;;;;;;6221925;23;20024;-91
2022/01/25 01:00:09;;;;;;;40.03;17.08;;;5.30;99.90;;;;;;6198992;23;20020;-91
2022/01/25 01:02:41;;;;;;;48.45;20.92;;;5.30;99.90;;;;;;6223835;23;20008;-93
2022/01/25 01:05:09;;;;;;;50.80;21.08;;;5.40;99.90;;;;;;6222789;22;20075;-92
2022/01/25 01:07:47;;;;;;;42.63;18.13;;;5.30;99.90;;;;;;6225424;22;20035;-92
2022/01/25 01:10:21;;;;;;;42.33;19.23;;;5.40;99.90;;;;;;6235811;23;20016;-91
2022/01/25 01:13:37;;;;;;;49.88;22.08;;;5.40;99.90;;;;;;6202883;23;20416;-92
2022/01/25 01:16:06;;;;;;;42.42;18.33;;;5.40;99.90;;;;;;6222280;23;20024;-94
2022/01/25 01:44:15;;;;;;;46.95;19.92;;;5.30;99.90;;;;;;6221326;23;20020;-91
2022/01/25 01:47:06;;;;;;;44.45;19.30;;;5.30;99.90;;;;;;6222618;23;20095;-93
2022/01/25 01:49:43;;;;;;;49.30;21.30;;;5.30;99.90;;;;;;6195421;23;20024;-93
2022/01/25 01:52:16;;;;;;;42.45;18.15;;;5.30;99.90;;;;;;6222042;23;20020;-93
2022/01/25 01:55:01;;;;;;;40.60;17.98;;;5.20;99.90;;;;;;6200034;23;20020;-92
2022/01/25 01:58:06;;;;;;;45.78;18.67;;;5.30;99.90;;;;;;6251856;23;20448;-94
2022/01/25 02:00:48;;;;;;;43.05;17.65;;;5.30;99.90;;;;;;6196639;23;20046;-92
2022/01/25 02:03:17;;;;;;;43.97;18.65;;;5.30;99.90;;;;;;6221572;23;20012;-94
2022/01/25 02:05:48;;;;;;;42.80;18.35;;;5.20;99.90;;;;;;6221387;23;20379;-94
2022/01/25 02:08:18;;;;;;;44.35;19.00;;;5.30;99.90;;;;;;6197832;22;20020;-93
2022/01/25 02:10:48;;;;;;;49.05;20.75;;;5.30;99.90;;;;;;6196289;23;20017;-95
2022/01/25 02:13:19;;;;;;;44.03;19.38;;;5.20;99.90;;;;;;6221249;23;20023;-94
2022/01/25 02:15:48;;;;;;;42.20;17.33;;;5.20;99.90;;;;;;6221277;23;20043;-93
2022/01/25 02:23:56;;;;;;;43.20;17.85;;;5.30;99.90;;;;;;6205176;23;20020;-92
2022/01/25 02:26:26;;;;;;;43.45;17.70;;;5.20;99.90;;;;;;6220864;23;20020;-92
2022/01/25 02:28:59;;;;;;;40.20;18.58;;;5.20;99.90;;;;;;6220945;23;20019;-94
2022/01/25 02:31:36;;;;;;;39.67;17.13;;;5.30;99.90;;;;;;6220401;23;20012;-93
2022/01/25 02:34:11;;;;;;;40.13;16.85;;;5.30;99.90;;;;;;6196588;23;20016;-93
2022/01/25 02:37:28;;;;;;;59.22;23.38;;;5.20;99.90;;;;;;6221536;23;20027;-94
2022/01/25 02:39:57;;;;;;;44.58;19.50;;;5.20;99.90;;;;;;6126167;23;20029;-92
2022/01/25 02:42:54;;;;;;;65.38;23.52;;;5.20;99.90;;;;;;6077334;23;20085;-93
2022/01/25 02:45:31;;;;;;;46.45;18.02;;;5.20;99.90;;;;;;6182732;23;20017;-93
2022/01/25 02:50:51;;;;;;;53.60;20.50;;;5.20;99.90;;;;;;6220469;23;20020;-93
2022/01/25 02:53:18;;;;;;;44.00;19.80;;;5.20;99.90;;;;;;6207000;23;20027;-92
2022/01/25 02:55:55;;;;;;;48.80;19.48;;;5.20;99.90;;;;;;6197324;23;20024;-94
2022/01/25 02:58:27;;;;;;;57.45;23.73;;;5.20;99.90;;;;;;6221118;22;20031;-93
2022/01/25 03:00:56;;;;;;;47.72;19.17;;;5.20;99.90;;;;;;6221269;23;20340;-94
2022/01/25 03:03:28;;;;;;;48.33;21.73;;;5.20;99.90;;;;;;6197481;23;20024;-93
2022/01/25 03:06:02;;;;;;;49.65;18.45;;;5.20;99.90;;;;;;6196329;23;20012;-94
2022/01/25 03:08:46;;;;;;;;;;;5.20;99.90;;;;;;6196090;23;20084;-94
2022/01/25 03:11:35;;;;;;;40.55;16.88;;;5.20;99.90;;;;;;6180498;22;19922;-93
2022/01/25 03:14:10;;;;;;;40.83;18.88;;;5.20;99.90;;;;;;6219167;23;20020;-93
2022/01/25 03:16:46;;;;;;;50.13;19.23;;;5.20;99.90;;;;;;6196351;23;20016;-92
2022/01/25 03:22:07;;;;;;;51.45;19.35;;;5.20;99.90;;;;;;6220154;23;20460;-94
2022/01/25 03:24:35;;;;;;;47.50;16.92;;;5.20;99.90;;;;;;6220508;23;20325;-92
2022/01/25 03:27:12;;;;;;;52.15;23.60;;;5.20;99.90;;;;;;6222220;23;20020;-93
2022/01/25 03:29:54;;;;;;;48.88;19.30;;;5.20;99.90;;;;;;6218747;23;20020;-93
2022/01/25 03:32:23;;;;;;;42.28;18.45;;;5.20;99.90;;;;;;6220806;23;20440;-92
2022/01/25 03:34:50;;;;;;;44.13;19.33;;;5.20;99.90;;;;;;6196298;23;20013;-93
2022/01/25 03:37:17;;;;;;;46.10;19.08;;;5.20;99.90;;;;;;6195367;23;20031;-93
2022/01/25 03:39:48;;;;;;;46.60;20.13;;;5.20;99.90;;;;;;6196345;23;20027;-93
2022/01/25 03:42:19;;;;;;;43.95;20.02;;;5.20;99.90;;;;;;6221481;23;20020;-93
2022/01/25 03:44:50;;;;;;;43.40;18.23;;;5.20;99.90;;;;;;6220858;23;20016;-93
2022/01/25 03:47:30;;;;;;;;;;;5.10;99.90;;;;;;6197615;23;20016;-93
2022/01/25 03:50:11;;;;;;;43.75;17.65;;;5.20;99.90;;;;;;6220256;23;19916;-94
2022/01/25 03:52:44;;;;;;;49.20;18.83;;;5.20;99.90;;;;;;6216992;22;20010;-93
2022/01/25 03:55:11;;;;;;;43.13;20.10;;;5.10;99.90;;;;;;6248008;22;20012;-93
2022/01/25 03:57:41;;;;;;;52.60;21.67;;;5.10;99.90;;;;;;6238820;22;20019;-94
2022/01/25 04:00:11;;;;;;;46.05;18.92;;;5.20;99.90;;;;;;6252046;23;20012;-93
2022/01/25 04:02:54;;;;;;;38.92;17.35;;;5.20;99.90;;;;;;6247922;23;20463;-93
2022/01/25 04:05:35;;;;;;;49.10;20.70;;;5.20;99.90;;;;;;6221269;23;20024;-93
2022/01/25 04:08:05;;;;;;;57.67;22.20;;;5.20;99.90;;;;;;6220735;23;20044;-93
2022/01/25 04:10:39;;;;;;;50.63;21.98;;;5.10;99.90;;;;;;6220304;23;20254;-92
2022/01/25 04:13:34;;;;;;;38.60;18.98;;;5.10;99.90;;;;;;6227409;23;20024;-93
2022/01/25 04:16:10;;;;;;;47.03;19.88;;;5.10;99.90;;;;;;6221387;23;20027;-93
2022/01/25 04:19:26;;;;;;;55.15;21.40;;;5.10;99.90;;;;;;6195673;23;20440;-94
2022/01/25 04:26:54;;;;;;;56.30;22.55;;;5.10;99.90;;;;;;6220251;23;20020;-93
2022/01/25 04:29:22;;;;;;;53.53;21.20;;;5.10;99.90;;;;;;6194934;23;20012;-93
2022/01/25 04:31:49;;;;;;;62.80;23.52;;;5.10;99.90;;;;;;6220102;23;20074;-92
2022/01/25 04:59:10;;;;;;;43.10;17.85;;;5.10;99.90;;;;;;6191855;23;20055;-93
2022/01/25 05:01:41;;;;;;;53.63;21.10;;;5.10;99.90;;;;;;6222531;23;20023;-93
2022/01/25 05:04:19;;;;;;;44.00;19.38;;;5.10;99.90;;;;;;6197102;23;20016;-93
2022/01/25 05:07:17;;;;;;;;;;;;;;;;;;;;;
2022/01/25 05:10:50;;;;;;;48.35;19.08;;;5.00;99.90;;;;;;6249036;22;20107;-93
2022/01/25 05:24:10;;;;;;;60.38;22.63;;;5.00;99.90;;;;;;6155828;23;20100;-94
2022/01/25 05:26:40;;;;;;;67.80;25.77;;;5.10;99.90;;;;;;6133678;23;20441;-92
2022/01/25 05:29:08;;;;;;;48.97;19.40;;;5.10;99.90;;;;;;6197067;23;20016;-92
2022/01/25 05:31:37;;;;;;;49.22;20.02;;;5.10;99.90;;;;;;6221749;23;20023;-93
2022/01/25 05:34:10;;;;;;;43.53;20.13;;;5.10;99.90;;;;;;6224125;23;20078;-93
2022/01/25 05:36:39;;;;;;;44.95;18.02;;;5.10;99.90;;;;;;6222178;23;20459;-92
2022/01/25 05:39:21;;;;;;;49.70;19.10;;;5.10;99.90;;;;;;6197977;23;20403;-93
2022/01/25 05:42:00;;;;;;;48.22;19.45;;;5.10;99.90;;;;;;6248929;23;20436;-93
2022/01/25 05:47:13;;;;;;;50.17;19.45;;;5.10;99.90;;;;;;6222353;23;20501;-93
2022/01/25 05:49:45;;;;;;;47.75;20.23;;;5.10;99.90;;;;;;6222694;23;20038;-92
2022/01/25 05:52:13;;;;;;;53.17;21.45;;;5.00;99.90;;;;;;6221968;23;20505;-93
2022/01/25 05:54:40;;;;;;;49.92;21.50;;;5.10;99.90;;;;;;6196375;23;20024;-93
2022/01/25 05:57:07;;;;;;;52.78;20.63;;;5.00;99.90;;;;;;6196217;23;20082;-93
2022/01/25 05:59:37;;;;;;;52.17;20.98;;;5.00;99.90;;;;;;6221760;23;20028;-93
2022/01/25 06:02:31;;;;;;;54.33;22.42;;;5.00;99.90;;;;;;6197077;23;20020;-93
2022/01/25 06:05:01;;;;;;;48.70;21.75;;;5.00;99.90;;;;;;6221832;23;20031;-92
2022/01/25 06:07:37;;;;;;;50.95;23.13;;;4.90;99.90;;;;;;6221843;23;20043;-93
2022/01/25 06:10:15;;;;;;;48.05;21.27;;;4.90;99.90;;;;;;6197956;23;20016;-93
2022/01/25 06:13:10;;;;;;;52.00;21.58;;;4.90;99.90;;;;;;6221972;23;20028;-92
2022/01/25 06:16:08;;;;;;;42.95;18.13;;;5.00;99.90;;;;;;6200833;23;20095;-93
2022/01/25 06:19:00;;;;;;;;;;;;;;;;;;;;;
2022/01/25 06:22:15;;;;;;;43.20;17.77;;;5.00;99.90;;;;;;6218591;23;20459;-93
2022/01/25 06:24:52;;;;;;;48.83;18.60;;;5.00;99.90;;;;;;6222927;23;20027;-92
2022/01/25 06:27:33;;;;;;;52.70;23.85;;;5.00;99.90;;;;;;6221675;23;20027;-93
2022/01/25 06:30:21;;;;;;;46.92;21.25;;;5.00;99.90;;;;;;6199723;23;20020;-91
2022/01/25 06:32:53;;;;;;;45.50;20.15;;;5.00;99.90;;;;;;6221924;23;20467;-92
2022/01/25 06:35:34;;;;;;;47.83;20.65;;;5.00;99.90;;;;;;6222993;23;20020;-91
2022/01/25 06:38:02;;;;;;;46.97;19.02;;;5.00;99.90;;;;;;6253278;23;20016;-92
2022/01/25 06:40:29;;;;;;;47.45;20.55;;;5.00;99.90;;;;;;6222881;23;20004;-93
2022/01/25 06:42:56;;;;;;;47.67;20.35;;;5.00;99.90;;;;;;6247313;23;20000;-92
2022/01/25 06:45:24;;;;;;;47.10;21.38;;;5.00;99.90;;;;;;6235543;23;20066;-92
2022/01/25 06:47:52;;;;;;;45.88;19.38;;;5.00;99.90;;;;;;6225471;23;20070;-93
2022/01/25 06:50:22;;;;;;;47.60;21.20;;;5.00;99.90;;;;;;6222461;23;20016;-93
2022/01/25 06:52:52;;;;;;;48.20;20.45;;;5.00;99.90;;;;;;6223217;23;20008;-91
2022/01/25 06:55:37;;;;;;;47.40;20.58;;;5.00;99.90;;;;;;6221923;23;20020;-92
2022/01/25 06:58:08;;;;;;;54.20;22.15;;;5.00;99.90;;;;;;6222093;23;20071;-92
2022/01/25 07:00:35;;;;;;;50.85;21.73;;;5.00;99.90;;;;;;6222629;23;20023;-91
2022/01/25 07:03:03;;;;;;;43.47;18.63;;;5.00;99.90;;;;;;6221897;23;20024;-91
2022/01/25 07:05:31;;;;;;;40.75;20.75;;;5.00;99.90;;;;;;6222035;23;20020;-92
2022/01/25 07:08:11;;;;;;;43.90;20.55;;;5.00;99.90;;;;;;6246618;22;20016;-91
2022/01/25 07:10:39;;;;;;;47.35;20.50;;;5.00;99.90;;;;;;6222118;23;20441;-92
2022/01/25 07:13:06;;;;;;;54.25;22.67;;;5.00;99.90;;;;;;6196398;23;20020;-94
2022/01/25 07:15:33;;;;;;;40.78;18.30;;;5.00;99.90;;;;;;6220974;23;20043;-92
2022/01/25 07:18:00;;;;;;;45.33;19.88;;;5.00;99.90;;;;;;6220687;23;20024;-92
2022/01/25 07:20:28;;;;;;;44.90;19.90;;;5.00;99.90;;;;;;6220486;23;20012;-93
2022/01/25 07:22:58;;;;;;;50.20;23.20;;;5.00;99.90;;;;;;6220003;23;20107;-92
2022/01/25 07:25:26;;;;;;;41.55;19.05;;;5.00;99.90;;;;;;6195830;23;20024;-93
2022/01/25 07:27:53;;;;;;;47.30;19.80;;;5.00;99.90;;;;;;6220942;23;20020;-92
2022/01/25 07:30:20;;;;;;;58.72;23.20;;;5.00;99.90;;;;;;6195075;23;20016;-91
2022/01/25 07:32:47;;;;;;;49.10;19.65;;;5.00;99.90;;;;;;6246390;23;20016;-91
2022/01/25 07:35:17;;;;;;;50.97;20.38;;;5.00;99.90;;;;;;6219378;23;20021;-91
2022/01/25 07:37:46;;;;;;;49.72;22.35;;;5.00;99.90;;;;;;6220205;23;20024;-92
2022/01/25 07:40:15;;;;;;;58.58;22.98;;;5.00;99.90;;;;;;6219994;23;20186;-91
2022/01/25 07:42:42;;;;;;;50.00;22.83;;;4.90;99.90;;;;;;6195034;23;20407;-92
2022/01/25 07:45:15;;;;;;;49.47;20.73;;;4.80;99.90;;;;;;6221305;23;20031;-92
2022/01/25 07:47:45;;;;;;;46.58;20.90;;;4.90;99.90;;;;;;6221008;23;20016;-92
2022/01/25 07:50:16;;;;;;;58.88;22.90;;;4.90;99.90;;;;;;6219650;23;20078;-91
2022/01/25 07:52:43;;;;;;;44.88;19.35;;;4.90;99.90;;;;;;6245338;23;20062;-91
2022/01/25 07:55:10;;;;;;;56.03;22.13;;;4.90;99.90;;;;;;6195591;23;20024;-92
2022/01/25 07:57:40;;;;;;;49.75;20.77;;;4.90;99.90;;;;;;6195416;23;20093;-93
2022/01/25 08:00:10;;;;;;;53.97;21.70;;;4.90;99.90;;;;;;6220655;23;20444;-92
2022/01/25 08:02:41;;;;;;;49.30;22.85;;;4.80;99.90;;;;;;6197142;23;20059;-92
2022/01/25 08:05:14;;;;;;;43.65;19.08;;;4.80;99.90;;;;;;6226779;23;20011;-91
2022/01/25 08:07:58;;;;;;;48.70;19.55;;;4.90;99.90;;;;;;6233225;22;20031;-92
2022/01/25 08:10:28;;;;;;;39.95;18.65;;;5.00;99.90;;;;;;6222703;23;20004;-90
2022/01/25 08:13:01;;;;;;;38.95;18.05;;;5.00;99.90;;;;;;6223372;23;20081;-91
2022/01/25 08:15:54;;;;;;;43.83;18.02;;;4.90;99.90;;;;;;6188525;23;20542;-92
2022/01/25 08:18:28;;;;;;;41.15;17.50;;;5.00;99.90;;;;;;6199800;22;20012;-91
2022/01/25 08:21:00;;;;;;;55.70;23.50;;;4.90;99.90;;;;;;6195406;23;20344;-92
2022/01/25 08:23:44;;;;;;;47.25;20.15;;;4.90;99.90;;;;;;6195883;23;20103;-91
2022/01/25 08:26:26;;;;;;;35.90;17.17;;;4.90;99.90;;;;;;6219216;23;20098;-91
2022/01/25 08:28:57;;;;;;;54.10;23.15;;;4.90;99.90;;;;;;6220651;23;20020;-91
2022/01/25 08:31:29;;;;;;;56.27;22.73;;;4.80;99.90;;;;;;6195391;23;20012;-92
2022/01/25 08:34:05;;;;;;;43.80;17.80;;;4.90;99.90;;;;;;6221678;23;20046;-91
2022/01/25 08:36:52;;;;;;;44.00;18.10;;;4.90;99.90;;;;;;6214500;23;20043;-92
2022/01/25 08:39:25;;;;;;;39.03;17.45;;;4.90;99.90;;;;;;6218815;23;20024;-90
2022/01/25 08:42:05;;;;;;;43.38;18.40;;;4.90;99.90;;;;;;6198430;23;20028;-92
2022/01/25 08:44:44;;;;;;;44.33;19.23;;;4.90;99.90;;;;;;6223955;23;20027;-92
2022/01/25 08:47:11;;;;;;;57.90;24.35;;;4.90;99.90;;;;;;6221253;23;20421;-93
2022/01/25 08:49:44;;;;;;;52.30;19.48;;;4.90;99.90;;;;;;6221106;23;20095;-90
2022/01/25 08:52:22;;;;;;;46.53;19.80;;;4.90;99.90;;;;;;6199871;23;20027;-93
2022/01/25 08:55:16;;;;;;;55.55;22.58;;;4.90;99.90;;;;;;6220955;23;20020;-91
2022/01/25 08:57:46;;;;;;;52.28;21.90;;;4.90;99.90;;;;;;6196765;23;20020;-91
2022/01/25 09:00:20;;;;;;;51.55;21.55;;;4.90;99.90;;;;;;6223708;23;20039;-91
2022/01/25 09:02:47;;;;;;;52.90;22.65;;;4.90;99.90;;;;;;6222579;23;20024;-92
2022/01/25 09:05:15;;;;;;;56.55;24.52;;;4.90;99.90;;;;;;6221833;23;20081;-91
2022/01/25 09:07:43;;;;;;;48.58;20.13;;;4.90;99.90;;;;;;6249195;23;20432;-92
2022/01/25 09:10:11;;;;;;;42.05;18.00;;;4.90;99.90;;;;;;6247405;23;20091;-93
2022/01/25 09:12:40;;;;;;;46.85;21.25;;;4.90;99.90;;;;;;6249595;23;20023;-91
2022/01/25 09:15:07;;;;;;;46.50;18.95;;;5.00;99.90;;;;;;6223104;23;20024;-91
2022/01/25 09:17:35;;;;;;;43.83;18.88;;;5.00;99.90;;;;;;6223200;23;20027;-92
2022/01/25 09:20:05;;;;;;;43.85;18.42;;;5.00;99.90;;;;;;6223343;23;20066;-91
2022/01/25 09:22:32;;;;;;;51.85;21.02;;;4.90;99.90;;;;;;6222899;23;20030;-92
2022/01/25 09:25:20;;;;;;;47.70;19.70;;;5.00;99.90;;;;;;6210428;23;20473;-91
2022/01/25 09:27:47;;;;;;;50.42;21.63;;;5.00;99.90;;;;;;6214954;22;20172;-89
2022/01/25 09:30:14;;;;;;;63.50;23.65;;;4.90;99.90;;;;;;6247003;22;20159;-91
2022/01/25 09:32:43;;;;;;;49.03;21.65;;;4.90;99.90;;;;;;6212794;23;20020;-91
2022/01/25 09:35:10;;;;;;;48.50;21.00;;;4.90;99.90;;;;;;6224725;23;20031;-91
2022/01/25 09:37:37;;;;;;;47.53;19.05;;;5.00;99.90;;;;;;6197647;23;20020;-91
2022/01/25 09:40:05;;;;;;;47.58;20.08;;;5.00;99.90;;;;;;6221904;23;20063;-90
2022/01/25 09:42:32;;;;;;;47.35;19.80;;;5.00;99.90;;;;;;6226109;23;20012;-91
2022/01/25 09:45:00;;;;;;;45.13;19.88;;;5.00;99.90;;;;;;6197058;23;20024;-91
2022/01/25 09:47:27;;;;;;;50.88;21.00;;;5.00;99.90;;;;;;6196713;23;20099;-90
2022/01/25 09:49:55;;;;;;;47.45;17.58;;;5.00;99.90;;;;;;6245841;23;20016;-90
2022/01/25 09:52:23;;;;;;;43.42;19.17;;;5.00;99.90;;;;;;6221148;23;20020;-91
2022/01/25 09:54:55;;;;;;;46.22;17.73;;;5.00;99.90;;;;;;6196551;23;20020;-92
2022/01/25 09:57:23;;;;;;;47.00;19.35;;;5.00;99.90;;;;;;6248635;23;20024;-91
2022/01/25 09:59:53;;;;;;;54.17;21.73;;;5.00;99.90;;;;;;6221450;23;20020;-90
2022/01/25 10:03:03;;;;;;;45.28;20.20;;;5.00;99.90;;;;;;6196801;23;20020;-90
2022/01/25 10:05:37;;;;;;;69.75;26.20;;;5.00;99.90;;;;;;6221776;23;20044;-90
2022/01/25 10:08:08;;;;;;;46.22;19.40;;;5.00;99.90;;;;;;6221709;23;20040;-90
2022/01/25 10:10:59;;;;;;;62.85;23.85;;;5.00;99.90;;;;;;6247358;23;20020;-90
2022/01/25 10:13:35;;;;;;;49.85;21.25;;;4.90;99.90;;;;;;6196928;23;20021;-90
2022/01/25 10:16:04;;;;;;;41.88;18.52;;;4.90;99.90;;;;;;6221938;23;20091;-90
2022/01/25 10:18:41;;;;;;;60.70;25.02;;;5.00;99.90;;;;;;6222142;22;20036;-90
2022/01/25 10:21:13;;;;;;;52.67;21.58;;;4.80;99.90;;;;;;6221350;23;20339;-91
2022/01/25 10:23:57;;;;;;;59.08;25.33;;;4.90;99.90;;;;;;6222167;23;20031;-91
2022/01/25 10:26:24;;;;;;;45.28;18.48;;;4.90;99.90;;;;;;6221674;23;20031;-91
2022/01/25 10:29:11;;;;;;;42.53;20.05;;;5.00;99.90;;;;;;6199887;23;20016;-91
2022/01/25 10:31:41;;;;;;;46.55;19.70;;;5.00;99.90;;;;;;6204331;23;20020;-91
2022/01/25 10:34:11;;;;;;;60.92;24.27;;;5.00;99.90;;;;;;6221143;23;20020;-91
2022/01/25 10:36:47;;;;;;;50.08;19.27;;;4.80;99.90;;;;;;6222005;23;20193;-91
2022/01/25 10:39:26;;;;;;;54.58;22.35;;;4.90;99.90;;;;;;6230333;23;20436;-91
2022/01/25 10:42:12;;;;;;;41.85;18.80;;;5.00;99.90;;;;;;6195050;23;20012;-91
2022/01/25 10:44:54;;;;;;;56.08;21.90;;;4.90;99.90;;;;;;6219731;23;20474;-90
2022/01/25 10:47:42;;;;;;;48.17;21.23;;;5.00;99.90;;;;;;6221815;23;20008;-91
2022/01/25 10:50:20;;;;;;;45.70;19.80;;;5.00;99.90;;;;;;6221848;23;20020;-91
2022/01/25 10:53:22;;;;;;;61.25;23.10;;;5.00;99.90;;;;;;6195982;23;20024;-92
2022/01/25 10:55:53;;;;;;;44.80;20.83;;;5.00;99.90;;;;;;6195254;23;20044;-91
2022/01/25 10:58:21;;;;;;;56.95;24.40;;;5.10;99.90;;;;;;6227788;22;20020;-91
2022/01/25 11:00:51;;;;;;;42.00;20.27;;;5.00;99.90;;;;;;6196844;23;20097;-90
2022/01/25 11:03:35;;;;;;;58.83;23.20;;;4.90;99.90;;;;;;6197444;23;20016;-91
2022/01/25 11:06:20;;;;;;;56.45;23.10;;;4.90;99.90;;;;;;6221629;23;20070;-91
2022/01/25 11:08:53;;;;;;;52.97;21.02;;;4.90;99.90;;;;;;6221518;23;20135;-90
2022/01/25 11:11:24;;;;;;;50.03;20.88;;;5.00;99.90;;;;;;6221830;23;20046;-90
2022/01/25 11:13:53;;;;;;;41.00;18.52;;;5.00;99.90;;;;;;6196307;23;20150;-91
2022/01/25 11:16:21;;;;;;;51.63;22.35;;;5.00;99.90;;;;;;6196372;23;20099;-91
2022/01/25 11:18:48;;;;;;;53.47;24.58;;;5.00;99.90;;;;;;6220665;22;20024;-90
2022/01/25 11:21:16;;;;;;;50.92;20.08;;;5.00;99.90;;;;;;6220826;23;20055;-91
2022/01/25 11:23:49;;;;;;;49.08;20.67;;;5.00;99.90;;;;;;6196325;23;20384;-92
2022/01/25 11:26:16;;;;;;;52.15;22.33;;;4.90;99.90;;;;;;6220781;23;20485;-92
2022/01/25 11:28:45;;;;;;;48.05;20.13;;;4.90;99.90;;;;;;6246619;23;20012;-91
2022/01/25 11:31:20;;;;;;;44.60;19.45;;;4.90;99.90;;;;;;6220912;23;20012;-91
2022/01/25 11:33:49;;;;;;;55.00;20.30;;;4.90;99.90;;;;;;6221079;23;20079;-90
2022/01/25 11:36:16;;;;;;;44.65;20.65;;;5.00;99.90;;;;;;6222033;23;20027;-92
2022/01/25 11:38:50;;;;;;;63.33;25.23;;;5.00;99.90;;;;;;6221306;23;20024;-91
2022/01/25 11:41:20;;;;;;;52.03;19.60;;;5.00;99.90;;;;;;6220433;23;20023;-91
2022/01/25 11:44:07;;;;;;;51.67;21.70;;;4.90;99.90;;;;;;6221192;23;20095;-93
2022/01/25 11:46:37;;;;;;;54.92;23.25;;;4.90;99.90;;;;;;6254140;22;20016;-91
2022/01/25 11:49:09;;;;;;;47.90;21.10;;;5.00;99.90;;;;;;6220022;23;20478;-91
2022/01/25 11:51:36;;;;;;;41.15;17.75;;;5.00;99.90;;;;;;6220646;23;20020;-91
2022/01/25 11:54:04;;;;;;;46.10;20.40;;;5.00;99.90;;;;;;6230267;23;20095;-91
2022/01/25 11:56:32;;;;;;;54.90;24.48;;;5.00;99.90;;;;;;6197647;23;20016;-90
2022/01/25 11:58:59;;;;;;;57.00;24.38;;;5.00;99.90;;;;;;6221860;23;20016;-91
2022/01/25 12:01:28;;;;;;;42.58;19.88;;;5.00;99.90;;;;;;6221595;23;20035;-90
2022/01/25 12:04:01;;;;;;;47.35;21.25;;;5.00;99.90;;;;;;6221758;23;20016;-91
2022/01/25 12:06:38;;;;;;;51.17;21.52;;;5.00;99.90;;;;;;6249049;23;20371;-90
2022/01/25 12:09:41;;;;;;;48.42;21.15;;;5.00;99.90;;;;;;6249023;22;20012;-91
2022/01/25 12:12:10;;;;;;;44.53;19.10;;;5.10;99.90;;;;;;6226693;23;20024;-89
2022/01/25 12:14:51;;;;;;;42.85;18.77;;;5.10;99.90;;;;;;6205146;22;20004;-90
2022/01/25 12:17:20;;;;;;;44.00;20.60;;;5.10;99.90;;;;;;6248826;22;20031;-89
2022/01/25 12:19:54;;;;;;;51.50;21.98;;;5.10;99.90;;;;;;6246964;22;20008;-90
2022/01/25 12:28:07;;;;;;;43.00;19.30;;;5.10;99.90;;;;;;6155994;23;20044;-91
2022/01/25 12:30:42;;;;;;;56.67;23.23;;;5.10;99.90;;;;;;6221869;23;20023;-90
2022/01/25 12:33:23;;;;;;;54.75;21.30;;;5.10;99.90;;;;;;6221502;23;20020;-90
2022/01/25 12:36:03;;;;;;;53.30;22.23;;;5.00;99.90;;;;;;6221609;23;20012;-89
2022/01/25 12:38:39;;;;;;;52.15;20.27;;;5.00;99.90;;;;;;6221520;22;20027;-90
2022/01/25 12:41:07;;;;;;;45.15;19.15;;;5.00;99.90;;;;;;6221826;23;20406;-90
2022/01/25 12:43:38;;;;;;;53.33;22.50;;;5.00;99.90;;;;;;6221417;23;20356;-91
2022/01/25 12:46:11;;;;;;;46.58;19.10;;;5.00;99.90;;;;;;6247824;23;20024;-90
2022/01/25 12:48:44;;;;;;;;;;;5.10;99.90;;;;;;6246493;23;20046;-90
2022/01/25 12:51:13;;;;;;;43.95;19.27;;;4.90;99.90;;;;;;6221611;23;19920;-90
2022/01/25 12:53:43;;;;;;;42.72;18.60;;;4.90;99.90;;;;;;6221250;23;20394;-91
2022/01/25 12:56:14;;;;;;;47.65;22.17;;;5.00;99.90;;;;;;6221558;23;20042;-90
2022/01/25 12:58:43;;;;;;;50.17;21.85;;;5.00;99.90;;;;;;6221230;23;20086;-90
2022/01/25 13:01:14;;;;;;;41.35;18.98;;;5.10;99.90;;;;;;6226717;23;20024;-90
2022/01/25 13:03:44;;;;;;;49.30;22.83;;;5.10;99.90;;;;;;6221539;23;20024;-90
2022/01/25 13:06:18;;;;;;;47.20;21.45;;;5.10;99.90;;;;;;6195743;23;20026;-89
2022/01/25 13:08:52;;;;;;;48.92;20.88;;;5.00;99.90;;;;;;6232007;23;20044;-89
2022/01/25 13:17:17;;;;;;;48.67;19.45;;;5.10;99.90;;;;;;6248273;23;20016;-88
2022/01/25 13:19:57;;;;;;;50.05;21.48;;;5.10;99.90;;;;;;6221654;23;20016;-89
2022/01/25 13:22:32;;;;;;;44.50;18.45;;;5.10;99.90;;;;;;6248884;23;20020;-89
2022/01/25 13:25:27;;;;;;;40.47;19.35;;;5.10;99.90;;;;;;6201947;23;20074;-89
2022/01/25 13:27:58;;;;;;;56.30;21.92;;;5.10;99.90;;;;;;6244327;23;20054;-90
2022/01/25 13:30:41;;;;;;;52.33;21.95;;;5.10;99.90;;;;;;6240584;22;20020;-90
2022/01/25 13:33:14;;;;;;;48.10;20.85;;;5.10;99.90;;;;;;6223519;23;20024;-92
2022/01/25 13:35:48;;;;;;;41.83;19.42;;;5.10;99.90;;;;;;6198724;23;20390;-92
2022/01/25 13:38:29;;;;;;;50.83;19.15;;;5.10;99.90;;;;;;6221904;22;20016;-89
2022/01/25 13:46:13;;;;;;;53.92;22.08;;;5.00;99.90;;;;;;6247951;23;20016;-93
2022/01/25 13:48:41;;;;;;;47.30;19.73;;;5.00;99.90;;;;;;6195819;23;20066;-91
2022/01/25 13:51:17;;;;;;;59.15;22.33;;;5.00;99.90;;;;;;6220764;23;20016;-92
2022/01/25 13:53:59;;;;;;;49.40;20.60;;;5.00;99.90;;;;;;6196255;23;20020;-92
2022/01/25 13:56:33;;;;;;;47.85;20.33;;;4.90;99.90;;;;;;6221242;23;20027;-92
2022/01/25 13:59:03;;;;;;;48.33;20.38;;;5.00;99.90;;;;;;6221432;23;20020;-91
2022/01/25 14:01:32;;;;;;;44.17;17.42;;;5.10;99.90;;;;;;6222333;23;20047;-91
2022/01/25 14:04:07;;;;;;;50.20;20.70;;;5.10;99.90;;;;;;6221806;23;20030;-90
2022/01/25 14:06:42;;;;;;;58.17;22.48;;;5.00;99.90;;;;;;6196486;23;20024;-91
2022/01/25 14:09:28;;;;;;;50.60;20.88;;;5.00;99.90;;;;;;6247650;22;20074;-91
2022/01/25 14:23:26;;;;;;;48.55;18.40;;;5.00;99.90;;;;;;6220706;23;20039;-92
2022/01/25 14:26:09;;;;;;;54.80;21.67;;;5.00;99.90;;;;;;6222630;23;20399;-91
2022/01/25 14:28:41;;;;;;;;;;;5.00;99.90;;;;;;6220599;23;20103;-91
2022/01/25 14:31:38;;;;;;;54.13;21.13;;;5.10;99.90;;;;;;6220088;23;19923;-90
2022/01/25 14:34:06;;;;;;;60.97;22.15;;;5.10;99.90;;;;;;6177879;23;20035;-91
2022/01/25 14:36:33;;;;;;;66.68;24.05;;;5.10;99.90;;;;;;6220028;23;20043;-91
2022/01/25 14:39:00;;;;;;;47.55;19.30;;;4.90;99.90;;;;;;6194754;23;20078;-91
2022/01/25 14:41:31;;;;;;;51.60;22.65;;;4.90;99.90;;;;;;6219872;23;20020;-91
2022/01/25 14:44:06;;;;;;;48.55;20.25;;;5.00;99.90;;;;;;6220953;23;20062;-91
2022/01/25 14:46:51;;;;;;;50.67;20.63;;;5.00;99.90;;;;;;6220786;23;20390;-92
2022/01/25 14:49:26;;;;;;;58.47;22.65;;;5.00;99.90;;;;;;6194911;23;20020;-92
2022/01/25 14:52:04;;;;;;;52.22;21.73;;;5.00;99.90;;;;;;5071362;27;20383;-89
2022/01/25 14:54:35;;;;;;;54.88;20.20;;;5.10;99.90;;;;;;5070774;28;20063;-83
2022/01/25 14:57:08;;;;;;;45.90;19.80;;;5.10;99.90;;;;;;5071739;28;20086;-90
2022/01/25 14:59:46;;;;;;;53.10;21.27;;;5.10;99.90;;;;;;5071368;28;20055;-89
2022/01/25 15:02:23;;;;;;;58.28;21.75;;;5.00;99.90;;;;;;5055190;28;20056;-90
2022/01/25 15:04:55;;;;;;;65.97;22.25;;;5.00;99.90;;;;;;5078131;28;20029;-89
2022/01/25 15:07:32;;;;;;;57.33;22.20;;;4.90;99.90;;;;;;5095158;28;20071;-90
2022/01/25 15:10:03;;;;;;;45.25;18.98;;;4.90;99.90;;;;;;5077785;28;20453;-90
2022/01/25 15:12:47;;;;;;;48.30;20.63;;;5.00;99.90;;;;;;5073076;28;20048;-89
2022/01/25 15:15:24;;;;;;;50.40;21.73;;;4.90;99.90;;;;;;5067086;28;20098;-90
2022/01/25 15:17:51;;;;;;;53.00;21.52;;;4.80;99.90;;;;;;5066380;28;20044;-90
2022/01/25 15:20:20;;;;;;;48.60;20.08;;;4.80;99.90;;;;;;5048290;28;20100;-90
2022/01/25 15:22:49;;;;;;;52.40;21.77;;;4.90;99.90;;;;;;5065823;28;20055;-90
2022/01/25 15:25:22;;;;;;;53.72;21.77;;;4.90;99.90;;;;;;5051334;28;20545;-90
2022/01/25 15:27:51;;;;;;;53.65;21.83;;;5.00;99.90;;;;;;5067251;28;20110;-90
2022/01/25 15:30:20;;;;;;;46.90;19.23;;;5.00;99.90;;;;;;5052322;28;20048;-90
2022/01/25 15:32:49;;;;;;;43.97;19.38;;;5.00;99.90;;;;;;5068663;28;20351;-89
2022/01/25 15:35:23;;;;;;;46.88;18.42;;;5.00;99.90;;;;;;5053400;28;20090;-90
2022/01/25 15:37:59;;;;;;;58.83;20.63;;;5.00;99.90;;;;;;5070421;28;20044;-90